LGAVLGAL

Guest
Details From LGAV - Athens Intl Airport Elefterios Venizel
To LGAL - Alexandroupolis Dimokritos
Flight Number -
Tags decoded
Created
Modified
Stats Distance 207 nm / 384 km
Max Altitude 0 ft / 0 m
Waypoints 6
Social Downloads 0
Likes 0
Share VATSIM

Download

Looking for another format? Having issues loading an existing format? Contact us
Advertisement - Login to hide

Notes

Requested: LGAV NEVRA UG33 LMO LGAL

Route

LGAV NEVRA UG33 LMO LGAL

ID Type Via Altitude Latitude Longitude Leg Dist Tot Dist Heading (true) Name
O LGAV APT - 0 ft / 0 m 37.93636˚ 23.94447˚ - 0 nm - Athens Intl Airport Elefterios Venizel
NEVRA FIX - 0 ft / 0 m 38.16833˚ 24.56028˚ 32 nm 32 nm 64° / 65° -
KOROS FIX UG33 (AWY-HI) 0 ft / 0 m 39.09972˚ 24.91583˚ 58 nm 90 nm 16° / 17° -
LUPIS FIX UG33 (AWY-HI) 0 ft / 0 m 39.21056˚ 24.95889˚ 6 nm 97 nm 17° / 17° -
LMO VOR UG33 (AWY-HI) 0 ft / 0 m 39.91954˚ 25.23719˚ 44 nm 142 nm 17° / 17° LIMNOS VOR-DME
O LGAL APT - 0 ft / 0 m 40.85587˚ 25.95626˚ 65 nm 207 nm 30° / 31° Alexandroupolis Dimokritos

Altitude Profile

Advertisement - Login to hide

Weather


0- 5 10 15 20 25 30 35+ Temperature / ° C

Clouds and Precipitation
Forecast for 2017-12-11 12:00 UTC. Updated an hour ago

Ground ~20,000 ft ~40,000 ft Winds

LGAV

Details ICAO LGAV (ATH)
Name Athens Intl Airport Elefterios Venizel
Region Greece
Timezone Europe/Athens (UTC+2.0)
Stats Elevation 308 ft / 94 m (AMSL)
Location 37.936357° 23.944470°
Runways 2
Magnetic Variation 4.483° E

METAR

LGAV 110750Z VRB01KT CAVOK 12/04 Q1023 NOSIG

Decode

TAF

TAF TAF LGAV 110500Z 1106/1206 23008KT 9999 FEW025

Decode

Departure Runways

ID Width Length Bearing (true) Bearing (mag) Surface Threshold Offset Overrun Length
03L 148 ft / 45 m 12,474 ft / 3,802 m 36.51° 32.03° Asphalt 984 ft / 300 m 393 ft / 120 m
03R 148 ft / 45 m 13,131 ft / 4,002 m 36.52° 32.04° Asphalt 984 ft / 300 m 393 ft / 120 m
21L 148 ft / 45 m 13,131 ft / 4,002 m 216.54° 212.06° Asphalt 984 ft / 300 m 393 ft / 120 m
21R 148 ft / 45 m 12,474 ft / 3,802 m 216.53° 212.05° Asphalt 984 ft / 300 m 393 ft / 120 m

LGAL

Details ICAO LGAL (AXD)
Name Alexandroupolis Dimokritos
Region Greece
Timezone Europe/Athens (UTC+2.0)
Stats Elevation 24 ft / 7 m (AMSL)
Location 40.855869° 25.956264°
Runways 1
Magnetic Variation 5.061° E

METAR

LGAL 110750Z 27006KT 9999 FEW025 06/03 Q1021

Decode

TAF

Not found

Destination Runways

ID Width Length Bearing (true) Bearing (mag) Surface Threshold Offset Overrun Length
07 148 ft / 45 m 8,403 ft / 2,561 m 72.93° 67.87° Asphalt 0 ft / 0 m 200 ft / 61 m
25 148 ft / 45 m 8,403 ft / 2,561 m 252.95° 247.89° Asphalt 0 ft / 0 m 200 ft / 61 m

Popular Alternatives